Time;durP1;ratioP1;P1;durP2;ratioP2;P2;SDS_P1;SDS_P2;PMS_P1;PMS_P2;Temp;Humidity;BMP_temperature;BMP_pressure;BME280_temperature;BME280_humidity;BME280_pressure;Samples;Min_cycle;Max_cycle;Signal;HPM_P1;HPM_P2
2021/06/13 00:01:38;;;;;;;0.10;0.10;;;;;;;;;;5109387;28;20219;-66
2021/06/13 00:04:04;;;;;;;1.37;1.27;;;;;;;;;;5092466;28;20205;-66
2021/06/13 00:06:30;;;;;;;0.10;0.10;;;;;;;;;;5101499;28;20208;-65
2021/06/13 00:08:57;;;;;;;0.10;0.10;;;;;;;;;;5103300;28;20392;-66
2021/06/13 00:11:23;;;;;;;0.10;0.10;;;;;;;;;;5104052;28;20233;-65
2021/06/13 00:13:49;;;;;;;0.10;0.10;;;;;;;;;;5102613;28;20203;-66
2021/06/13 00:16:15;;;;;;;0.10;0.10;;;;;;;;;;5102409;28;20207;-65
2021/06/13 00:18:41;;;;;;;0.10;0.10;;;;;;;;;;5104352;28;20210;-65
2021/06/13 00:21:06;;;;;;;0.10;0.10;;;;;;;;;;5102075;28;20218;-66
2021/06/13 00:23:32;;;;;;;0.10;0.10;;;;;;;;;;5102575;28;20233;-66
2021/06/13 00:25:59;;;;;;;0.03;0.03;;;;;;;;;;5094073;28;20264;-65
2021/06/13 00:28:25;;;;;;;0.10;0.10;;;;;;;;;;5102516;28;20489;-65
2021/06/13 00:30:51;;;;;;;0.10;0.10;;;;;;;;;;5102443;28;20225;-66
2021/06/13 00:33:16;;;;;;;1.07;1.07;;;;;;;;;;5102251;28;20205;-65
2021/06/13 00:35:42;;;;;;;0.10;0.10;;;;;;;;;;5102623;28;20393;-66
2021/06/13 00:38:08;;;;;;;0.10;0.10;;;;;;;;;;5102151;28;20545;-66
2021/06/13 00:40:34;;;;;;;0.10;0.10;;;;;;;;;;5104867;28;20489;-66
2021/06/13 00:43:02;;;;;;;0.10;0.10;;;;;;;;;;5101203;28;20230;-66
2021/06/13 00:45:27;;;;;;;0.10;0.10;;;;;;;;;;5096994;28;20207;-66
2021/06/13 00:47:53;;;;;;;0.10;0.10;;;;;;;;;;5098104;28;20219;-66
2021/06/13 00:50:23;;;;;;;0.10;0.10;;;;;;;;;;5101580;28;20219;-66
2021/06/13 00:52:49;;;;;;;0.10;0.10;;;;;;;;;;5101664;28;20199;-65
2021/06/13 00:55:15;;;;;;;0.10;0.10;;;;;;;;;;5101870;28;20295;-66
2021/06/13 00:57:40;;;;;;;0.10;0.10;;;;;;;;;;5101919;28;20246;-66
2021/06/13 01:00:08;;;;;;;0.10;0.10;;;;;;;;;;5101799;28;20284;-66
2021/06/13 01:02:34;;;;;;;0.10;0.10;;;;;;;;;;5101750;28;20210;-65
2021/06/13 01:05:00;;;;;;;0.10;0.10;;;;;;;;;;5112473;28;20250;-66
2021/06/13 01:07:30;;;;;;;0.70;0.70;;;;;;;;;;5105036;28;20374;-65
2021/06/13 01:09:58;;;;;;;0.10;0.10;;;;;;;;;;5102308;28;20256;-65
2021/06/13 01:12:25;;;;;;;0.83;0.77;;;;;;;;;;5101474;28;20224;-65
2021/06/13 01:14:59;;;;;;;0.10;0.10;;;;;;;;;;5105539;28;20201;-67
2021/06/13 01:17:29;;;;;;;0.00;0.00;;;;;;;;;;5101347;28;20196;-66
2021/06/13 01:19:59;;;;;;;0.10;0.10;;;;;;;;;;5102032;28;20205;-65
2021/06/13 01:22:33;;;;;;;0.20;0.20;;;;;;;;;;5101416;28;20197;-66
2021/06/13 01:25:03;;;;;;;0.40;0.40;;;;;;;;;;5095614;28;20286;-66
2021/06/13 01:27:37;;;;;;;0.00;0.00;;;;;;;;;;5101740;28;20432;-66
2021/06/13 01:30:07;;;;;;;0.10;0.10;;;;;;;;;;5101336;28;20206;-66
2021/06/13 01:32:33;;;;;;;0.10;0.10;;;;;;;;;;5101822;28;20251;-66
2021/06/13 01:35:01;;;;;;;0.10;0.10;;;;;;;;;;5101324;28;20210;-66
2021/06/13 01:37:28;;;;;;;0.10;0.10;;;;;;;;;;5101476;28;20204;-65
2021/06/13 01:39:57;;;;;;;0.10;0.10;;;;;;;;;;5101570;28;20213;-66
2021/06/13 01:42:24;;;;;;;0.10;0.10;;;;;;;;;;5102288;28;20249;-66
2021/06/13 01:44:52;;;;;;;0.10;0.10;;;;;;;;;;5094900;28;20202;-66
2021/06/13 01:47:19;;;;;;;0.10;0.10;;;;;;;;;;5093160;28;20206;-65
2021/06/13 01:49:45;;;;;;;0.10;0.10;;;;;;;;;;5101564;28;20478;-66
2021/06/13 01:52:12;;;;;;;0.10;0.10;;;;;;;;;;5101069;28;20221;-65
2021/06/13 01:54:38;;;;;;;0.50;0.50;;;;;;;;;;5102922;28;20463;-66
2021/06/13 01:57:05;;;;;;;0.10;0.10;;;;;;;;;;5104746;28;20220;-66
2021/06/13 01:59:31;;;;;;;0.10;0.10;;;;;;;;;;5104744;28;20204;-66
2021/06/13 02:01:58;;;;;;;0.10;0.10;;;;;;;;;;5104844;28;20236;-66
2021/06/13 02:04:26;;;;;;;0.77;0.50;;;;;;;;;;5104920;28;20205;-66
2021/06/13 02:06:54;;;;;;;0.20;0.20;;;;;;;;;;5104671;28;20228;-66
2021/06/13 02:09:20;;;;;;;0.10;0.10;;;;;;;;;;5104657;28;20215;-65
2021/06/13 02:11:46;;;;;;;0.10;0.10;;;;;;;;;;5104565;28;20330;-65
2021/06/13 02:14:12;;;;;;;0.10;0.10;;;;;;;;;;5104851;28;20501;-66
2021/06/13 02:16:40;;;;;;;0.10;0.10;;;;;;;;;;5104582;28;20206;-66
2021/06/13 02:19:06;;;;;;;0.10;0.10;;;;;;;;;;5103656;28;20206;-66
2021/06/13 02:21:34;;;;;;;0.10;0.10;;;;;;;;;;5104881;28;20459;-66
2021/06/13 02:23:59;;;;;;;0.10;0.10;;;;;;;;;;5104622;28;20500;-66
2021/06/13 02:26:26;;;;;;;0.10;0.10;;;;;;;;;;5104318;28;20262;-66
2021/06/13 02:28:53;;;;;;;0.10;0.10;;;;;;;;;;5104030;28;20228;-66
2021/06/13 02:31:20;;;;;;;0.10;0.10;;;;;;;;;;5104104;28;20646;-65
2021/06/13 02:33:46;;;;;;;0.10;0.10;;;;;;;;;;5100107;28;20205;-65
2021/06/13 02:36:13;;;;;;;0.10;0.10;;;;;;;;;;5103240;28;20206;-66
2021/06/13 02:38:40;;;;;;;0.10;0.10;;;;;;;;;;5117309;28;20217;-66
2021/06/13 02:41:06;;;;;;;0.10;0.10;;;;;;;;;;5104183;28;20392;-65
2021/06/13 02:43:32;;;;;;;0.10;0.10;;;;;;;;;;5103856;28;20245;-65
2021/06/13 02:45:58;;;;;;;0.10;0.10;;;;;;;;;;5103585;28;20209;-66
2021/06/13 02:48:24;;;;;;;0.10;0.10;;;;;;;;;;5105891;28;20497;-65
2021/06/13 02:50:50;;;;;;;0.87;0.87;;;;;;;;;;5103246;28;20225;-66
2021/06/13 02:53:19;;;;;;;0.10;0.10;;;;;;;;;;5098821;28;20216;-66
2021/06/13 02:55:51;;;;;;;0.10;0.10;;;;;;;;;;5103366;28;20201;-65
2021/06/13 02:58:23;;;;;;;0.10;0.10;;;;;;;;;;5110942;28;20203;-66
2021/06/13 03:00:50;;;;;;;0.10;0.10;;;;;;;;;;5111757;28;20220;-66
2021/06/13 03:03:19;;;;;;;0.10;0.10;;;;;;;;;;5103205;28;20201;-66
2021/06/13 03:05:45;;;;;;;0.10;0.10;;;;;;;;;;5099110;28;20201;-65
2021/06/13 03:08:11;;;;;;;0.10;0.10;;;;;;;;;;5103875;28;20205;-65
2021/06/13 03:10:37;;;;;;;0.10;0.10;;;;;;;;;;5101593;28;20411;-66
2021/06/13 03:13:04;;;;;;;0.10;0.10;;;;;;;;;;5103328;28;20216;-66
2021/06/13 03:15:30;;;;;;;0.10;0.10;;;;;;;;;;5102802;28;20235;-65
2021/06/13 03:17:57;;;;;;;0.10;0.10;;;;;;;;;;5103410;28;20212;-65
2021/06/13 03:20:23;;;;;;;0.10;0.10;;;;;;;;;;5103047;28;20210;-66
2021/06/13 03:22:49;;;;;;;0.10;0.10;;;;;;;;;;5103547;28;20198;-65
2021/06/13 03:25:15;;;;;;;0.10;0.10;;;;;;;;;;5102913;28;20553;-65
2021/06/13 03:27:42;;;;;;;0.10;0.10;;;;;;;;;;5103228;28;20231;-65
2021/06/13 03:30:10;;;;;;;0.10;0.10;;;;;;;;;;5103102;28;20226;-66
2021/06/13 03:32:36;;;;;;;0.10;0.10;;;;;;;;;;5099644;28;20324;-66
2021/06/13 03:35:02;;;;;;;0.53;0.53;;;;;;;;;;5102271;28;20209;-65
2021/06/13 03:37:28;;;;;;;0.10;0.10;;;;;;;;;;5102776;28;20250;-65
2021/06/13 03:39:55;;;;;;;0.10;0.10;;;;;;;;;;5102740;28;20203;-65
2021/06/13 03:42:22;;;;;;;0.10;0.10;;;;;;;;;;5102455;28;20229;-65
2021/06/13 03:44:48;;;;;;;0.10;0.10;;;;;;;;;;5102634;28;20550;-65
2021/06/13 03:47:16;;;;;;;0.10;0.10;;;;;;;;;;5097380;28;20206;-66
2021/06/13 03:49:44;;;;;;;0.10;0.10;;;;;;;;;;5099935;28;20553;-65
2021/06/13 03:52:11;;;;;;;0.63;0.63;;;;;;;;;;5093690;28;20258;-65
2021/06/13 03:54:37;;;;;;;0.10;0.10;;;;;;;;;;5099542;28;20226;-65
2021/06/13 03:57:05;;;;;;;1.80;1.70;;;;;;;;;;5110766;28;20205;-65
2021/06/13 03:59:33;;;;;;;0.17;0.17;;;;;;;;;;5102139;28;20200;-65
2021/06/13 04:02:00;;;;;;;0.10;0.10;;;;;;;;;;5099020;28;20195;-65
2021/06/13 04:04:29;;;;;;;0.10;0.10;;;;;;;;;;5111540;28;20235;-66
2021/06/13 04:06:56;;;;;;;0.10;0.10;;;;;;;;;;5102333;28;20209;-66
2021/06/13 04:09:22;;;;;;;0.10;0.10;;;;;;;;;;5109303;28;20257;-65
2021/06/13 04:11:50;;;;;;;0.10;0.10;;;;;;;;;;5121691;28;20224;-67
2021/06/13 04:14:17;;;;;;;0.10;0.10;;;;;;;;;;5102449;28;20213;-66
2021/06/13 04:16:46;;;;;;;0.10;0.10;;;;;;;;;;5102014;28;20298;-66
2021/06/13 04:19:12;;;;;;;0.10;0.10;;;;;;;;;;5103750;28;20394;-65
2021/06/13 04:21:40;;;;;;;0.10;0.10;;;;;;;;;;5102795;28;20249;-66
2021/06/13 04:24:07;;;;;;;0.10;0.10;;;;;;;;;;5099996;28;20538;-66
2021/06/13 04:26:34;;;;;;;0.10;0.10;;;;;;;;;;5102227;28;20252;-65
2021/06/13 04:29:00;;;;;;;0.10;0.10;;;;;;;;;;5102793;28;20397;-66
2021/06/13 04:31:28;;;;;;;0.10;0.10;;;;;;;;;;5102213;28;20279;-67
2021/06/13 04:33:55;;;;;;;0.10;0.10;;;;;;;;;;5107558;28;20200;-66
2021/06/13 04:36:22;;;;;;;0.10;0.10;;;;;;;;;;5106104;28;20213;-66
2021/06/13 04:38:49;;;;;;;0.10;0.10;;;;;;;;;;5102583;28;20232;-66
2021/06/13 04:41:16;;;;;;;0.20;0.20;;;;;;;;;;5102035;28;20205;-66
2021/06/13 04:43:42;;;;;;;0.13;0.13;;;;;;;;;;5102160;28;20248;-66
2021/06/13 04:46:10;;;;;;;1.50;1.07;;;;;;;;;;5103936;28;20524;-66
2021/06/13 04:48:36;;;;;;;0.10;0.10;;;;;;;;;;5102779;28;20205;-66
2021/06/13 04:51:04;;;;;;;0.10;0.10;;;;;;;;;;5102000;28;20228;-66
2021/06/13 04:53:48;;;;;;;0.10;0.10;;;;;;;;;;5101944;28;20202;-66
2021/06/13 04:56:18;;;;;;;0.10;0.10;;;;;;;;;;5102119;28;20398;-66
2021/06/13 04:58:44;;;;;;;0.10;0.10;;;;;;;;;;5109436;28;20246;-66
2021/06/13 05:01:10;;;;;;;0.10;0.10;;;;;;;;;;5101513;28;20213;-66
2021/06/13 05:03:37;;;;;;;0.00;0.00;;;;;;;;;;5101624;28;20213;-67
2021/06/13 05:06:03;;;;;;;0.10;0.10;;;;;;;;;;5101291;28;20210;-67
2021/06/13 05:08:31;;;;;;;0.10;0.10;;;;;;;;;;5099174;28;20203;-67
2021/06/13 05:10:57;;;;;;;0.10;0.10;;;;;;;;;;5101725;28;20211;-66
2021/06/13 05:13:25;;;;;;;0.20;0.20;;;;;;;;;;5101879;28;20272;-66
2021/06/13 05:15:51;;;;;;;0.10;0.10;;;;;;;;;;5101582;28;20209;-67
2021/06/13 05:18:18;;;;;;;0.10;0.10;;;;;;;;;;5101097;28;20430;-66
2021/06/13 05:20:44;;;;;;;0.03;0.03;;;;;;;;;;5101411;28;20202;-66
2021/06/13 05:23:10;;;;;;;0.10;0.10;;;;;;;;;;5101484;28;20240;-67
2021/06/13 05:25:39;;;;;;;0.10;0.10;;;;;;;;;;5100948;28;20259;-66
2021/06/13 05:28:07;;;;;;;0.30;0.30;;;;;;;;;;5102233;28;20204;-66
2021/06/13 05:30:35;;;;;;;0.10;0.10;;;;;;;;;;5105213;28;20222;-65
2021/06/13 05:33:01;;;;;;;0.10;0.10;;;;;;;;;;5105443;28;20231;-65
2021/06/13 05:35:28;;;;;;;12.63;5.00;;;;;;;;;;5105514;28;20315;-65
2021/06/13 05:37:54;;;;;;;0.10;0.10;;;;;;;;;;5105030;28;20210;-65
2021/06/13 05:40:21;;;;;;;0.10;0.10;;;;;;;;;;5105223;28;20514;-66
2021/06/13 05:42:49;;;;;;;0.10;0.10;;;;;;;;;;5105690;28;20201;-66
2021/06/13 05:45:16;;;;;;;0.10;0.10;;;;;;;;;;5104937;28;20205;-66
2021/06/13 05:47:43;;;;;;;0.10;0.10;;;;;;;;;;5105058;28;20208;-66
2021/06/13 05:50:11;;;;;;;0.10;0.10;;;;;;;;;;5108714;28;20267;-66
2021/06/13 05:52:37;;;;;;;0.10;0.10;;;;;;;;;;5098082;28;20517;-66
2021/06/13 05:55:04;;;;;;;5.63;5.23;;;;;;;;;;5096075;28;20280;-66
2021/06/13 05:57:32;;;;;;;0.10;0.10;;;;;;;;;;5104976;28;20205;-66
2021/06/13 05:59:58;;;;;;;0.10;0.10;;;;;;;;;;5105344;28;20210;-67
2021/06/13 06:02:24;;;;;;;0.10;0.10;;;;;;;;;;5104725;28;20340;-66
2021/06/13 06:04:52;;;;;;;0.10;0.10;;;;;;;;;;5104380;28;20205;-66
2021/06/13 06:07:18;;;;;;;0.10;0.10;;;;;;;;;;5104273;28;20277;-66
2021/06/13 06:09:45;;;;;;;0.10;0.10;;;;;;;;;;5114075;28;20209;-66
2021/06/13 06:12:11;;;;;;;0.10;0.10;;;;;;;;;;5107368;28;20280;-66
2021/06/13 06:14:37;;;;;;;0.10;0.10;;;;;;;;;;5104308;28;20290;-66
2021/06/13 06:17:04;;;;;;;1.70;1.20;;;;;;;;;;5103034;28;20214;-66
2021/06/13 06:19:30;;;;;;;0.10;0.10;;;;;;;;;;5092746;28;20210;-66
2021/06/13 06:21:58;;;;;;;0.10;0.10;;;;;;;;;;5104217;28;20232;-66
2021/06/13 06:24:24;;;;;;;0.40;0.40;;;;;;;;;;5104105;28;20452;-66
2021/06/13 06:26:51;;;;;;;0.10;0.10;;;;;;;;;;5104598;28;20271;-66
2021/06/13 06:29:17;;;;;;;0.10;0.10;;;;;;;;;;5104492;28;20244;-65
2021/06/13 06:31:43;;;;;;;0.10;0.10;;;;;;;;;;5104447;28;20247;-66
2021/06/13 06:34:10;;;;;;;0.23;0.23;;;;;;;;;;5104121;28;20216;-65
2021/06/13 06:36:36;;;;;;;0.10;0.10;;;;;;;;;;5104508;28;20249;-65
2021/06/13 06:39:04;;;;;;;2.00;1.07;;;;;;;;;;5104503;28;20260;-66
2021/06/13 06:41:30;;;;;;;0.10;0.10;;;;;;;;;;5103783;28;20209;-66
2021/06/13 06:43:56;;;;;;;0.10;0.10;;;;;;;;;;5103723;28;20208;-66
2021/06/13 06:46:22;;;;;;;0.10;0.10;;;;;;;;;;5100742;28;20209;-67
2021/06/13 06:48:49;;;;;;;0.10;0.10;;;;;;;;;;5101549;28;20209;-67
2021/06/13 06:51:15;;;;;;;0.10;0.10;;;;;;;;;;5103344;28;20201;-67
2021/06/13 06:53:41;;;;;;;0.10;0.10;;;;;;;;;;5104546;28;20584;-67
2021/06/13 06:56:09;;;;;;;0.10;0.10;;;;;;;;;;5098784;28;20201;-67
2021/06/13 06:58:35;;;;;;;0.10;0.10;;;;;;;;;;5113754;28;20382;-66
2021/06/13 07:01:02;;;;;;;0.20;0.20;;;;;;;;;;5092623;28;20212;-65
2021/06/13 07:03:28;;;;;;;0.10;0.10;;;;;;;;;;5099224;28;20323;-65
2021/06/13 07:05:54;;;;;;;0.10;0.10;;;;;;;;;;5099435;28;20202;-66
2021/06/13 07:08:20;;;;;;;0.10;0.10;;;;;;;;;;5102640;28;20224;-67
2021/06/13 07:10:46;;;;;;;0.10;0.10;;;;;;;;;;5093887;28;20463;-67
2021/06/13 07:13:14;;;;;;;0.10;0.10;;;;;;;;;;5092448;28;20224;-67
2021/06/13 07:15:40;;;;;;;0.10;0.10;;;;;;;;;;5091766;28;20272;-66
2021/06/13 07:18:07;;;;;;;0.10;0.10;;;;;;;;;;5101086;28;20206;-66
2021/06/13 07:20:35;;;;;;;0.10;0.10;;;;;;;;;;5096409;28;20204;-67
2021/06/13 07:23:01;;;;;;;0.10;0.10;;;;;;;;;;5099947;28;20374;-66
2021/06/13 07:25:28;;;;;;;0.10;0.10;;;;;;;;;;5095458;28;20341;-65
2021/06/13 07:27:54;;;;;;;0.00;0.00;;;;;;;;;;5093584;28;20234;-67
2021/06/13 07:30:23;;;;;;;0.10;0.10;;;;;;;;;;5096671;28;20274;-66
2021/06/13 07:32:49;;;;;;;0.10;0.10;;;;;;;;;;5096067;28;20298;-67
2021/06/13 07:35:18;;;;;;;0.10;0.10;;;;;;;;;;5095362;28;20248;-67
2021/06/13 07:37:45;;;;;;;0.10;0.10;;;;;;;;;;5093726;28;20211;-67
2021/06/13 07:40:11;;;;;;;0.10;0.10;;;;;;;;;;5095078;28;20274;-66
2021/06/13 07:42:38;;;;;;;0.00;0.00;;;;;;;;;;5091922;28;20202;-67
2021/06/13 07:45:04;;;;;;;0.10;0.10;;;;;;;;;;5092549;28;20253;-66
2021/06/13 07:47:33;;;;;;;0.10;0.10;;;;;;;;;;5095756;28;20203;-64
2021/06/13 07:49:59;;;;;;;0.10;0.10;;;;;;;;;;5095647;28;20212;-67
2021/06/13 07:52:25;;;;;;;0.10;0.10;;;;;;;;;;5089803;28;20344;-66
2021/06/13 07:54:52;;;;;;;0.00;0.00;;;;;;;;;;5092797;28;20201;-67
2021/06/13 07:57:18;;;;;;;0.10;0.10;;;;;;;;;;5095297;28;20202;-66
2021/06/13 07:59:45;;;;;;;0.10;0.10;;;;;;;;;;5089721;28;20207;-65
2021/06/13 08:02:12;;;;;;;0.20;0.20;;;;;;;;;;5090353;28;20436;-65
2021/06/13 08:04:43;;;;;;;0.10;0.10;;;;;;;;;;5093886;28;20209;-67
2021/06/13 08:07:10;;;;;;;0.10;0.10;;;;;;;;;;5091162;28;20203;-66
2021/06/13 08:09:36;;;;;;;0.10;0.10;;;;;;;;;;5092671;28;20450;-66
2021/06/13 08:12:02;;;;;;;0.93;0.57;;;;;;;;;;5094177;28;20206;-65
2021/06/13 08:14:29;;;;;;;0.00;0.00;;;;;;;;;;5093572;28;20225;-65
2021/06/13 08:16:55;;;;;;;0.10;0.10;;;;;;;;;;5094374;28;20205;-66
2021/06/13 08:19:21;;;;;;;17.53;3.00;;;;;;;;;;5093622;28;20206;-67
2021/06/13 08:21:49;;;;;;;0.03;0.03;;;;;;;;;;5089500;28;20201;-66
2021/06/13 08:24:16;;;;;;;0.10;0.10;;;;;;;;;;5090820;28;20208;-66
2021/06/13 08:26:42;;;;;;;0.10;0.10;;;;;;;;;;5093568;28;20320;-67
2021/06/13 08:29:08;;;;;;;0.10;0.10;;;;;;;;;;5102841;28;20418;-68
2021/06/13 08:31:35;;;;;;;0.43;0.43;;;;;;;;;;5100161;28;20264;-67
2021/06/13 08:34:02;;;;;;;0.47;0.47;;;;;;;;;;5093326;28;20436;-67
2021/06/13 08:36:28;;;;;;;0.10;0.10;;;;;;;;;;5095671;28;20282;-65
2021/06/13 08:38:56;;;;;;;0.00;0.00;;;;;;;;;;5095736;28;20552;-66
2021/06/13 08:41:23;;;;;;;0.00;0.00;;;;;;;;;;5098614;28;20206;-64
2021/06/13 08:43:49;;;;;;;0.00;0.00;;;;;;;;;;5090066;28;20195;-66
2021/06/13 08:46:16;;;;;;;0.10;0.10;;;;;;;;;;5094107;28;20218;-66
2021/06/13 08:48:45;;;;;;;0.10;0.10;;;;;;;;;;5098208;28;20305;-66
2021/06/13 08:51:11;;;;;;;0.00;0.00;;;;;;;;;;5095441;28;20545;-66
2021/06/13 08:53:43;;;;;;;0.83;0.83;;;;;;;;;;5094839;28;20219;-67
2021/06/13 08:56:11;;;;;;;0.10;0.10;;;;;;;;;;5094174;28;20282;-66
2021/06/13 08:58:37;;;;;;;0.10;0.10;;;;;;;;;;5092611;28;20204;-67
2021/06/13 09:01:05;;;;;;;0.10;0.10;;;;;;;;;;5093430;28;20242;-67
2021/06/13 09:03:31;;;;;;;0.10;0.10;;;;;;;;;;5095829;28;20202;-66
2021/06/13 09:05:57;;;;;;;0.00;0.00;;;;;;;;;;5100664;28;20256;-66
2021/06/13 09:08:32;;;;;;;0.10;0.10;;;;;;;;;;5105685;28;20210;-67
2021/06/13 09:10:58;;;;;;;0.10;0.10;;;;;;;;;;5094448;28;20227;-67
2021/06/13 09:13:28;;;;;;;0.10;0.10;;;;;;;;;;5098488;28;20415;-64
2021/06/13 09:15:55;;;;;;;0.10;0.10;;;;;;;;;;5103771;28;20227;-65
2021/06/13 09:18:35;;;;;;;0.20;0.20;;;;;;;;;;5112151;28;20272;-66
2021/06/13 09:21:02;;;;;;;1.23;0.77;;;;;;;;;;5093947;28;20211;-67
2021/06/13 09:23:30;;;;;;;0.10;0.10;;;;;;;;;;5098477;28;20356;-66
2021/06/13 09:26:00;;;;;;;0.53;0.53;;;;;;;;;;5097122;28;20298;-66
2021/06/13 09:28:30;;;;;;;0.10;0.10;;;;;;;;;;5101867;28;20230;-66
2021/06/13 09:30:56;;;;;;;0.10;0.10;;;;;;;;;;5100851;28;20374;-66
2021/06/13 09:33:25;;;;;;;0.00;0.00;;;;;;;;;;5100899;28;20219;-66
2021/06/13 09:35:52;;;;;;;0.10;0.10;;;;;;;;;;5103172;28;20217;-67
2021/06/13 09:38:20;;;;;;;0.10;0.10;;;;;;;;;;5094285;28;20200;-66
2021/06/13 09:40:48;;;;;;;0.47;0.47;;;;;;;;;;5092570;28;20210;-68
2021/06/13 09:43:16;;;;;;;0.10;0.10;;;;;;;;;;5103640;28;22170;-67
2021/06/13 09:45:51;;;;;;;0.10;0.10;;;;;;;;;;5099218;28;20202;-66
2021/06/13 09:48:17;;;;;;;0.10;0.10;;;;;;;;;;5096643;28;20201;-66
2021/06/13 09:50:45;;;;;;;0.10;0.10;;;;;;;;;;5094233;28;20250;-67
2021/06/13 09:53:31;;;;;;;0.10;0.10;;;;;;;;;;5094847;28;20244;-66
2021/06/13 09:56:05;;;;;;;3.60;1.10;;;;;;;;;;5102287;28;20200;-67
2021/06/13 09:58:32;;;;;;;0.10;0.10;;;;;;;;;;5104846;28;20202;-67
2021/06/13 10:01:06;;;;;;;0.10;0.10;;;;;;;;;;5094219;28;20203;-67
2021/06/13 10:03:35;;;;;;;0.00;0.00;;;;;;;;;;5096726;28;20191;-67
2021/06/13 10:06:01;;;;;;;0.10;0.10;;;;;;;;;;5101387;28;20217;-67
2021/06/13 10:08:28;;;;;;;0.10;0.10;;;;;;;;;;5099915;28;20235;-66
2021/06/13 10:10:54;;;;;;;0.10;0.10;;;;;;;;;;5099381;28;20346;-66
2021/06/13 10:13:21;;;;;;;0.10;0.10;;;;;;;;;;5102685;28;20427;-66
2021/06/13 10:15:50;;;;;;;0.10;0.10;;;;;;;;;;5099370;28;20231;-67
2021/06/13 10:18:20;;;;;;;0.10;0.10;;;;;;;;;;5097576;28;20211;-66
2021/06/13 10:20:46;;;;;;;0.90;0.90;;;;;;;;;;5097295;28;20197;-66
2021/06/13 10:23:12;;;;;;;0.10;0.10;;;;;;;;;;5099203;28;20205;-66
2021/06/13 10:25:39;;;;;;;0.37;0.37;;;;;;;;;;5101001;28;20301;-67
2021/06/13 10:28:05;;;;;;;0.07;0.07;;;;;;;;;;5093566;28;20204;-67
2021/06/13 10:30:32;;;;;;;2.27;0.63;;;;;;;;;;5093008;28;20489;-67
2021/06/13 10:32:58;;;;;;;0.10;0.10;;;;;;;;;;5098719;28;20228;-66
2021/06/13 10:35:26;;;;;;;0.10;0.10;;;;;;;;;;5094050;28;20490;-66
2021/06/13 10:37:53;;;;;;;0.83;0.83;;;;;;;;;;5097577;28;20207;-66
2021/06/13 10:40:19;;;;;;;0.43;0.43;;;;;;;;;;5093915;28;20539;-66
2021/06/13 10:42:46;;;;;;;0.10;0.10;;;;;;;;;;5095129;28;20201;-68
2021/06/13 10:45:12;;;;;;;0.10;0.10;;;;;;;;;;5098577;28;20441;-67
2021/06/13 10:47:38;;;;;;;0.03;0.03;;;;;;;;;;5097437;28;20411;-66
2021/06/13 10:50:06;;;;;;;0.10;0.10;;;;;;;;;;5094850;28;20203;-66
2021/06/13 10:52:34;;;;;;;0.10;0.10;;;;;;;;;;5098787;28;20491;-65
2021/06/13 10:55:00;;;;;;;0.10;0.10;;;;;;;;;;5090497;28;20234;-66
2021/06/13 10:57:44;;;;;;;0.10;0.10;;;;;;;;;;5093568;28;20266;-66
2021/06/13 11:00:32;;;;;;;0.10;0.10;;;;;;;;;;5097278;28;20230;-67
2021/06/13 11:02:59;;;;;;;0.10;0.10;;;;;;;;;;5104785;28;20201;-67
2021/06/13 11:05:43;;;;;;;0.10;0.10;;;;;;;;;;5088531;28;20221;-67
2021/06/13 11:08:11;;;;;;;0.50;0.50;;;;;;;;;;5097127;28;20253;-66
2021/06/13 11:10:37;;;;;;;0.10;0.10;;;;;;;;;;5100447;28;20280;-66
2021/06/13 11:13:05;;;;;;;0.10;0.10;;;;;;;;;;5093400;28;20227;-66
2021/06/13 11:15:51;;;;;;;0.00;0.00;;;;;;;;;;5103818;28;20435;-66
2021/06/13 11:18:22;;;;;;;0.10;0.10;;;;;;;;;;5089888;28;20474;-66
2021/06/13 11:20:50;;;;;;;0.10;0.10;;;;;;;;;;5112933;28;20200;-66
2021/06/13 11:23:31;;;;;;;0.10;0.10;;;;;;;;;;5110468;28;20306;-66
2021/06/13 11:26:00;;;;;;;0.10;0.10;;;;;;;;;;5113567;28;20304;-66
2021/06/13 11:28:28;;;;;;;0.10;0.10;;;;;;;;;;5107208;28;20250;-66
2021/06/13 11:30:55;;;;;;;0.10;0.10;;;;;;;;;;5092311;28;20203;-68
2021/06/13 11:33:37;;;;;;;0.20;0.20;;;;;;;;;;5074896;28;20279;-65
2021/06/13 11:36:05;;;;;;;0.00;0.00;;;;;;;;;;5100845;28;20376;-66
2021/06/13 11:38:32;;;;;;;0.10;0.10;;;;;;;;;;5109603;28;20209;-67
2021/06/13 11:41:00;;;;;;;0.00;0.00;;;;;;;;;;5093792;28;20208;-69
2021/06/13 11:43:30;;;;;;;0.10;0.10;;;;;;;;;;5104157;28;20445;-68
2021/06/13 11:45:58;;;;;;;0.33;0.33;;;;;;;;;;5093322;28;20203;-66
2021/06/13 11:48:26;;;;;;;0.10;0.10;;;;;;;;;;5094698;28;20209;-66
2021/06/13 11:51:03;;;;;;;0.30;0.30;;;;;;;;;;5093281;28;20267;-67
2021/06/13 11:53:48;;;;;;;0.10;0.10;;;;;;;;;;5101252;28;20520;-67
2021/06/13 11:56:29;;;;;;;0.00;0.00;;;;;;;;;;5092092;28;20266;-67
2021/06/13 11:58:59;;;;;;;0.00;0.00;;;;;;;;;;5100045;28;20208;-69
2021/06/13 12:01:25;;;;;;;1.00;0.57;;;;;;;;;;5085508;28;20220;-67
2021/06/13 12:03:52;;;;;;;0.10;0.10;;;;;;;;;;5085190;28;20203;-66
2021/06/13 12:06:19;;;;;;;2.53;1.53;;;;;;;;;;5086374;28;20208;-65
2021/06/13 12:08:46;;;;;;;0.10;0.10;;;;;;;;;;5102924;28;20199;-65
2021/06/13 12:11:27;;;;;;;0.10;0.10;;;;;;;;;;5103718;28;20387;-66
2021/06/13 12:13:54;;;;;;;3.73;2.20;;;;;;;;;;5102324;28;20280;-66
2021/06/13 12:16:22;;;;;;;0.10;0.10;;;;;;;;;;5111698;28;20455;-66
2021/06/13 12:18:58;;;;;;;0.03;0.03;;;;;;;;;;5097438;28;20210;-65
2021/06/13 12:21:25;;;;;;;0.10;0.10;;;;;;;;;;5121598;28;20208;-69
2021/06/13 12:23:58;;;;;;;0.10;0.10;;;;;;;;;;5103160;28;20201;-68
2021/06/13 12:29:24;;;;;;;0.03;0.03;;;;;;;;;;5072229;28;20257;-70
2021/06/13 12:31:52;;;;;;;0.10;0.10;;;;;;;;;;5106668;28;20208;-68
2021/06/13 12:34:19;;;;;;;0.10;0.10;;;;;;;;;;5105755;28;20274;-69
2021/06/13 12:36:48;;;;;;;0.10;0.10;;;;;;;;;;5094603;28;21119;-69
2021/06/13 12:39:23;;;;;;;0.10;0.10;;;;;;;;;;5099138;28;20262;-68
2021/06/13 12:41:50;;;;;;;0.03;0.03;;;;;;;;;;5104720;28;20253;-68
2021/06/13 12:44:16;;;;;;;0.00;0.00;;;;;;;;;;5085251;28;20525;-69
2021/06/13 12:46:43;;;;;;;0.07;0.07;;;;;;;;;;5098386;28;20195;-68
2021/06/13 12:49:10;;;;;;;0.93;0.93;;;;;;;;;;5102302;28;20209;-68
2021/06/13 12:51:41;;;;;;;0.03;0.03;;;;;;;;;;5117764;28;20209;-71
2021/06/13 12:54:13;;;;;;;0.07;0.07;;;;;;;;;;5122389;28;20210;-70
2021/06/13 12:56:41;;;;;;;0.10;0.10;;;;;;;;;;5092430;28;20203;-67
2021/06/13 12:59:07;;;;;;;0.00;0.00;;;;;;;;;;5102880;28;20204;-68
2021/06/13 13:01:34;;;;;;;0.03;0.03;;;;;;;;;;5101413;28;20368;-68
2021/06/13 13:04:01;;;;;;;0.10;0.10;;;;;;;;;;5094151;28;20206;-68
2021/06/13 13:06:29;;;;;;;0.07;0.07;;;;;;;;;;5087876;28;20269;-68
2021/06/13 13:08:55;;;;;;;0.07;0.07;;;;;;;;;;5094763;28;20250;-69
2021/06/13 13:11:24;;;;;;;0.00;0.00;;;;;;;;;;5102747;28;20202;-68
2021/06/13 13:13:51;;;;;;;0.03;0.03;;;;;;;;;;5109078;28;20556;-67
2021/06/13 13:16:23;;;;;;;0.20;0.20;;;;;;;;;;5102251;28;20521;-67
2021/06/13 13:18:50;;;;;;;2.53;1.75;;;;;;;;;;5108508;28;20205;-67
2021/06/13 13:21:28;;;;;;;0.50;0.50;;;;;;;;;;5092531;28;20233;-67
2021/06/13 13:23:56;;;;;;;0.10;0.10;;;;;;;;;;5096861;28;20439;-66
2021/06/13 13:26:23;;;;;;;0.10;0.10;;;;;;;;;;5113001;28;20238;-66
2021/06/13 13:28:50;;;;;;;0.10;0.10;;;;;;;;;;5101949;28;20222;-66
2021/06/13 13:31:18;;;;;;;0.08;0.08;;;;;;;;;;5105128;28;20391;-67
2021/06/13 13:33:45;;;;;;;0.65;0.65;;;;;;;;;;5095764;28;20380;-67
2021/06/13 13:36:13;;;;;;;0.13;0.13;;;;;;;;;;5095996;28;20391;-67
2021/06/13 13:38:40;;;;;;;0.00;0.00;;;;;;;;;;5104461;28;20213;-69
2021/06/13 13:41:09;;;;;;;0.10;0.10;;;;;;;;;;5099443;28;20208;-68
2021/06/13 13:43:37;;;;;;;0.10;0.10;;;;;;;;;;5108292;28;20202;-69
2021/06/13 13:46:03;;;;;;;1.08;0.52;;;;;;;;;;5110259;28;20202;-68
2021/06/13 13:48:30;;;;;;;0.10;0.10;;;;;;;;;;5102195;28;20203;-68
2021/06/13 13:51:00;;;;;;;0.10;0.10;;;;;;;;;;5105340;28;20313;-68
2021/06/13 13:53:28;;;;;;;0.10;0.10;;;;;;;;;;5092126;28;20470;-68
2021/06/13 13:55:55;;;;;;;0.40;0.40;;;;;;;;;;5097697;28;20223;-68
2021/06/13 13:58:24;;;;;;;0.10;0.10;;;;;;;;;;5092823;28;20206;-68
2021/06/13 14:00:53;;;;;;;0.05;0.05;;;;;;;;;;5086494;28;20203;-69
2021/06/13 14:03:20;;;;;;;0.00;0.00;;;;;;;;;;5100169;28;20208;-69
2021/06/13 14:05:46;;;;;;;0.10;0.10;;;;;;;;;;5087012;28;20203;-70
2021/06/13 14:08:13;;;;;;;0.10;0.10;;;;;;;;;;5096909;28;20203;-70
2021/06/13 14:10:39;;;;;;;0.73;0.73;;;;;;;;;;5094561;28;20368;-69
2021/06/13 14:13:05;;;;;;;0.10;0.10;;;;;;;;;;5092919;28;20204;-69
2021/06/13 14:15:33;;;;;;;0.10;0.10;;;;;;;;;;5093601;28;20235;-70
2021/06/13 14:18:00;;;;;;;0.00;0.00;;;;;;;;;;5084151;28;20201;-69
2021/06/13 14:20:26;;;;;;;0.08;0.08;;;;;;;;;;5103685;28;20445;-70
2021/06/13 14:22:53;;;;;;;0.10;0.10;;;;;;;;;;5099542;28;20339;-70
2021/06/13 14:25:20;;;;;;;0.08;0.08;;;;;;;;;;5089712;28;20250;-69
2021/06/13 14:27:47;;;;;;;0.00;0.00;;;;;;;;;;5105579;28;20205;-70
2021/06/13 14:30:14;;;;;;;0.10;0.10;;;;;;;;;;5103462;28;20222;-70
2021/06/13 14:32:42;;;;;;;0.00;0.00;;;;;;;;;;5122759;28;20240;-70
2021/06/13 14:35:09;;;;;;;0.00;0.00;;;;;;;;;;5090585;28;20299;-70
2021/06/13 14:37:35;;;;;;;0.00;0.00;;;;;;;;;;5105062;28;20205;-70
2021/06/13 14:40:02;;;;;;;0.50;0.50;;;;;;;;;;5108852;28;20277;-69
2021/06/13 14:42:28;;;;;;;0.00;0.00;;;;;;;;;;5101119;28;20273;-70
2021/06/13 14:44:55;;;;;;;0.10;0.10;;;;;;;;;;5104600;28;20229;-69
2021/06/13 14:47:21;;;;;;;0.10;0.10;;;;;;;;;;5104649;28;20219;-71
2021/06/13 14:49:49;;;;;;;0.10;0.10;;;;;;;;;;5091348;28;20226;-70